createdAt,value
2024-01-24T00:01:55.415Z,4.47
2024-01-24T00:04:22.075Z,2.70
2024-01-24T00:06:48.742Z,2.50
2024-01-24T00:09:15.207Z,2.45
2024-01-24T00:11:41.803Z,2.80
2024-01-24T00:14:08.429Z,2.83
2024-01-24T00:16:35.040Z,2.92
2024-01-24T00:19:01.515Z,2.90
2024-01-24T00:21:27.880Z,2.67
2024-01-24T00:23:54.336Z,3.22
2024-01-24T00:26:20.964Z,2.33
2024-01-24T00:28:47.544Z,2.60
2024-01-24T00:31:14.075Z,3.15
2024-01-24T00:33:41.128Z,2.53
2024-01-24T00:36:07.747Z,2.97
2024-01-24T00:38:34.301Z,2.08
2024-01-24T00:41:00.871Z,3.78
2024-01-24T00:43:27.253Z,2.17
2024-01-24T00:45:53.714Z,1.75
2024-01-24T00:48:20.423Z,3.10
2024-01-24T00:50:46.777Z,2.28
2024-01-24T00:53:15.655Z,2.30
2024-01-24T00:55:42.201Z,2.63
2024-01-24T00:58:08.512Z,2.92
2024-01-24T01:00:35.262Z,2.60
2024-01-24T01:03:01.871Z,3.10
2024-01-24T01:05:28.283Z,2.97
2024-01-24T01:07:54.848Z,2.25
2024-01-24T01:10:21.152Z,2.20
2024-01-24T01:12:47.712Z,2.58
2024-01-24T01:15:14.499Z,1.95
2024-01-24T01:17:41.492Z,2.20
2024-01-24T01:20:08.280Z,2.72
2024-01-24T01:22:34.762Z,2.63
2024-01-24T01:25:01.450Z,2.35
2024-01-24T01:27:27.900Z,2.28
2024-01-24T01:29:54.489Z,2.00
2024-01-24T01:32:21.078Z,2.25
2024-01-24T01:34:47.652Z,2.60
2024-01-24T01:37:14.248Z,3.15
2024-01-24T01:39:40.834Z,2.55
2024-01-24T01:42:07.147Z,3.13
2024-01-24T01:44:35.347Z,1.92
2024-01-24T01:47:01.708Z,2.58
2024-01-24T01:49:28.422Z,2.45
2024-01-24T01:51:54.938Z,2.42
2024-01-24T01:54:21.732Z,2.15
2024-01-24T01:56:48.859Z,2.55
2024-01-24T01:59:15.576Z,3.00
2024-01-24T02:01:44.779Z,2.80
2024-01-24T02:04:11.402Z,2.85
2024-01-24T02:06:38.070Z,1.90
2024-01-24T02:09:04.397Z,2.30
2024-01-24T02:11:30.948Z,2.25
2024-01-24T02:13:59.052Z,2.65
2024-01-24T02:16:25.386Z,2.58
2024-01-24T02:18:51.844Z,2.72
2024-01-24T02:21:18.521Z,2.25
2024-01-24T02:23:45.318Z,2.42
2024-01-24T02:26:11.870Z,3.03
2024-01-24T02:28:38.138Z,1.80
2024-01-24T02:31:04.487Z,2.75
2024-01-24T02:33:31.067Z,1.30
2024-01-24T02:35:57.435Z,2.38
2024-01-24T02:38:23.722Z,1.95
2024-01-24T02:40:50.250Z,2.63
2024-01-24T02:43:16.838Z,2.20
2024-01-24T02:45:43.238Z,2.00
2024-01-24T02:48:09.672Z,2.97
2024-01-24T02:50:36.263Z,2.35
2024-01-24T02:53:02.581Z,2.60
2024-01-24T02:55:29.132Z,2.22
2024-01-24T02:57:55.771Z,2.33
2024-01-24T03:00:22.379Z,2.45
2024-01-24T03:02:48.984Z,1.83
2024-01-24T03:05:15.337Z,2.92
2024-01-24T03:07:41.899Z,1.70
2024-01-24T03:10:08.352Z,2.00
2024-01-24T03:12:34.946Z,1.88
2024-01-24T03:15:01.529Z,1.60
2024-01-24T03:17:28.676Z,1.52
2024-01-24T03:19:55.266Z,1.80
2024-01-24T03:22:22.023Z,2.17
2024-01-24T03:24:48.665Z,1.33
2024-01-24T03:27:15.201Z,1.90
2024-01-24T03:29:42.213Z,1.85
2024-01-24T03:32:08.585Z,1.65
2024-01-24T03:34:34.924Z,1.48
2024-01-24T03:37:01.535Z,2.15
2024-01-24T03:39:28.893Z,1.52
2024-01-24T03:41:55.287Z,2.20
2024-01-24T03:44:21.603Z,1.60
2024-01-24T03:46:48.148Z,2.63
2024-01-24T03:49:14.826Z,2.17
2024-01-24T03:51:41.526Z,1.40
2024-01-24T03:54:08.115Z,1.65
2024-01-24T03:56:34.696Z,2.05
2024-01-24T03:59:01.008Z,1.75
2024-01-24T04:01:27.631Z,2.03
2024-01-24T04:03:54.059Z,1.25
2024-01-24T04:06:20.747Z,1.73
2024-01-24T04:08:47.357Z,1.83
2024-01-24T04:11:13.683Z,2.17
2024-01-24T04:13:42.319Z,1.70
2024-01-24T04:16:09.012Z,1.73
2024-01-24T04:18:35.424Z,1.38
2024-01-24T04:21:02.504Z,2.05
2024-01-24T04:23:28.811Z,1.20
2024-01-24T04:25:55.387Z,1.25
2024-01-24T04:28:21.696Z,2.75
2024-01-24T04:30:48.386Z,1.00
2024-01-24T04:33:15.169Z,1.95
2024-01-24T04:35:41.856Z,1.23
2024-01-24T04:38:08.207Z,1.42
2024-01-24T04:40:34.480Z,1.67
2024-01-24T04:43:00.899Z,1.92
2024-01-24T04:45:27.537Z,2.10
2024-01-24T04:47:54.048Z,1.10
2024-01-24T04:50:20.667Z,2.03
2024-01-24T04:52:47.300Z,2.38
2024-01-24T04:55:13.853Z,1.92
2024-01-24T04:57:40.694Z,1.60
2024-01-24T05:00:07.563Z,1.27
2024-01-24T05:02:33.928Z,2.30
2024-01-24T05:05:00.251Z,1.58
2024-01-24T05:07:26.543Z,2.67
2024-01-24T05:09:53.292Z,1.27
2024-01-24T05:12:20.000Z,2.33
2024-01-24T05:14:46.612Z,1.60
2024-01-24T05:17:12.982Z,1.30
2024-01-24T05:19:39.761Z,1.83
2024-01-24T05:22:06.258Z,1.63
2024-01-24T05:24:32.885Z,2.13
2024-01-24T05:26:59.264Z,1.50
2024-01-24T05:29:25.835Z,1.80
2024-01-24T05:31:52.145Z,2.92
2024-01-24T05:34:18.767Z,2.22
2024-01-24T05:36:45.264Z,1.80
2024-01-24T05:39:11.615Z,1.40
2024-01-24T05:41:37.896Z,0.90
2024-01-24T05:44:04.694Z,1.40
2024-01-24T05:46:31.098Z,2.10
2024-01-24T05:48:57.839Z,1.42
2024-01-24T05:51:24.235Z,1.67
2024-01-24T05:53:50.876Z,1.88
2024-01-24T05:56:17.403Z,1.33
2024-01-24T05:58:43.952Z,2.00
2024-01-24T06:01:10.635Z,1.50
2024-01-24T06:03:37.174Z,1.95
2024-01-24T06:06:04.050Z,1.95
2024-01-24T06:08:30.481Z,2.35
2024-01-24T06:10:57.072Z,1.27
2024-01-24T06:13:23.634Z,2.00
2024-01-24T06:15:51.286Z,1.20
2024-01-24T06:18:18.155Z,1.77
2024-01-24T06:20:44.619Z,1.58
2024-01-24T06:23:11.177Z,2.10
2024-01-24T06:25:37.746Z,1.67
2024-01-24T06:28:04.603Z,1.52
2024-01-24T06:30:31.849Z,1.95
2024-01-24T06:32:58.503Z,1.83
2024-01-24T06:35:24.836Z,2.05
2024-01-24T06:37:51.374Z,1.65
2024-01-24T06:40:18.077Z,1.70
2024-01-24T06:42:44.657Z,1.27
2024-01-24T06:45:11.449Z,1.65
2024-01-24T06:47:38.051Z,1.42
2024-01-24T06:50:04.708Z,1.33
2024-01-24T06:52:31.297Z,2.13
2024-01-24T06:54:57.693Z,1.70
2024-01-24T06:57:24.272Z,1.98
2024-01-24T06:59:50.656Z,1.42
2024-01-24T07:02:17.504Z,1.27
2024-01-24T07:04:44.239Z,1.50
2024-01-24T07:07:10.754Z,1.55
2024-01-24T07:09:37.420Z,2.10
2024-01-24T07:12:04.867Z,1.95
2024-01-24T07:14:31.421Z,2.80
2024-01-24T07:16:57.971Z,1.73
2024-01-24T07:19:24.668Z,2.03
2024-01-24T07:21:51.371Z,1.35
2024-01-24T07:24:18.053Z,1.20
2024-01-24T07:26:44.627Z,1.65
2024-01-24T07:29:11.206Z,1.50
2024-01-24T07:31:37.996Z,2.03
2024-01-24T07:34:04.638Z,2.28
2024-01-24T07:36:31.188Z,3.05
2024-01-24T07:38:57.743Z,1.33
2024-01-24T07:41:24.087Z,1.35
2024-01-24T07:43:50.701Z,2.10
2024-01-24T07:46:17.285Z,1.58
2024-01-24T07:48:44.349Z,0.95
2024-01-24T07:51:11.017Z,1.00
2024-01-24T07:53:37.671Z,2.10
2024-01-24T07:56:11.313Z,4.50
2024-01-24T07:58:46.483Z,1.25
2024-01-24T08:01:13.536Z,1.65
2024-01-24T08:03:40.196Z,2.40
2024-01-24T08:06:06.806Z,1.55
2024-01-24T08:08:33.643Z,2.22
2024-01-24T08:11:00.294Z,1.80
2024-01-24T08:13:26.964Z,1.70
2024-01-24T08:15:55.523Z,1.63
2024-01-24T08:18:22.342Z,1.33
2024-01-24T08:20:48.752Z,1.50
2024-01-24T08:23:15.742Z,2.50
2024-01-24T08:25:42.299Z,1.30
2024-01-24T08:28:08.642Z,1.38
2024-01-24T08:30:35.228Z,1.95
2024-01-24T08:33:01.932Z,1.85
2024-01-24T08:35:28.371Z,1.73
2024-01-24T08:37:54.948Z,2.40
2024-01-24T08:40:21.492Z,1.15
2024-01-24T08:42:48.162Z,1.23
2024-01-24T08:45:16.420Z,1.20
2024-01-24T08:47:43.027Z,2.17
2024-01-24T08:50:10.418Z,1.42
2024-01-24T08:52:36.899Z,2.17
2024-01-24T08:55:04.189Z,1.40
2024-01-24T08:57:30.686Z,2.15
2024-01-24T08:59:57.266Z,1.30
2024-01-24T09:02:23.720Z,1.60
2024-01-24T09:04:50.085Z,1.63
2024-01-24T09:07:17.397Z,1.55
2024-01-24T09:09:43.992Z,3.15
2024-01-24T09:12:10.891Z,0.40
2024-01-24T09:14:37.242Z,1.98
2024-01-24T09:17:03.797Z,2.65
2024-01-24T09:19:30.539Z,1.83
2024-01-24T09:21:57.166Z,1.35
2024-01-24T09:24:24.016Z,1.55
2024-01-24T09:26:50.800Z,1.40
2024-01-24T09:29:17.303Z,1.35
2024-01-24T09:31:43.614Z,2.33
2024-01-24T09:34:11.680Z,2.03
2024-01-24T09:36:38.168Z,2.40
2024-01-24T09:39:04.835Z,1.40
2024-01-24T09:41:35.581Z,1.52
2024-01-24T09:44:04.068Z,1.13
2024-01-24T09:46:31.117Z,2.40
2024-01-24T09:48:57.897Z,2.15
2024-01-24T09:51:24.492Z,1.55
2024-01-24T09:53:52.129Z,1.48
2024-01-24T09:56:19.635Z,1.70
2024-01-24T09:58:46.334Z,2.30
2024-01-24T10:01:13.417Z,1.90
2024-01-24T10:03:40.346Z,2.30
2024-01-24T10:06:09.248Z,1.40
2024-01-24T10:08:35.809Z,2.10
2024-01-24T10:11:02.285Z,1.33
2024-01-24T10:13:28.826Z,2.00
2024-01-24T10:15:55.886Z,1.80
2024-01-24T10:18:22.563Z,1.58
2024-01-24T10:20:53.106Z,2.50
2024-01-24T10:23:20.129Z,1.92
2024-01-24T10:25:47.179Z,2.83
2024-01-24T10:28:16.176Z,1.30
2024-01-24T10:30:43.078Z,2.63
2024-01-24T10:33:15.180Z,2.45
2024-01-24T10:35:45.391Z,2.72
2024-01-24T10:38:12.636Z,2.15
2024-01-24T10:40:42.342Z,3.95
2024-01-24T10:43:15.206Z,2.30
2024-01-24T10:45:46.178Z,2.90
2024-01-24T10:48:13.301Z,1.80
2024-01-24T10:50:40.078Z,2.95
2024-01-24T10:53:09.371Z,3.30
2024-01-24T10:55:37.293Z,2.47
2024-01-24T10:58:05.847Z,1.80
2024-01-24T11:00:33.347Z,1.98
2024-01-24T11:05:33.411Z,3.13
2024-01-24T11:10:39.589Z,2.60
2024-01-24T11:13:06.629Z,2.80
2024-01-24T11:15:33.732Z,2.13
2024-01-24T11:18:19.067Z,3.60
2024-01-24T11:20:46.812Z,4.40
2024-01-24T11:23:32.531Z,2.55
2024-01-24T11:28:25.882Z,2.35
2024-01-24T11:30:52.433Z,3.72
2024-01-24T11:33:19.060Z,2.35
2024-01-24T11:35:48.951Z,2.95
2024-01-24T11:38:26.828Z,2.03
2024-01-24T11:41:01.396Z,3.05
2024-01-24T11:43:31.908Z,2.47
2024-01-24T11:46:02.419Z,2.25
2024-01-24T11:48:30.318Z,3.45
2024-01-24T11:51:00.602Z,2.42
2024-01-24T11:53:27.781Z,2.42
2024-01-24T11:55:56.300Z,2.30
2024-01-24T11:58:23.395Z,2.42
2024-01-24T12:00:50.080Z,3.28
2024-01-24T12:03:16.712Z,3.47
2024-01-24T12:05:43.831Z,3.25
2024-01-24T12:08:10.420Z,3.13
2024-01-24T12:10:40.130Z,2.95
2024-01-24T12:13:07.402Z,2.50
2024-01-24T12:15:37.240Z,2.75
2024-01-24T12:18:10.793Z,3.22
2024-01-24T12:20:37.977Z,2.10
2024-01-24T12:23:05.576Z,2.58
2024-01-24T12:27:58.922Z,3.00
2024-01-24T12:30:28.819Z,2.13
2024-01-24T12:32:58.521Z,3.67
2024-01-24T12:35:25.446Z,2.50
2024-01-24T12:37:52.590Z,3.50
2024-01-24T12:40:18.968Z,2.30
2024-01-24T12:42:45.540Z,3.55
2024-01-24T12:45:12.597Z,2.60
2024-01-24T12:47:39.625Z,3.80
2024-01-24T12:50:06.909Z,2.08
2024-01-24T12:52:33.692Z,2.67
2024-01-24T12:55:00.320Z,2.30
2024-01-24T12:57:30.451Z,2.55
2024-01-24T12:59:58.581Z,3.63
2024-01-24T13:02:25.308Z,3.60
2024-01-24T13:04:52.379Z,4.13
2024-01-24T13:07:19.631Z,3.63
2024-01-24T13:09:54.665Z,3.17
2024-01-24T13:12:23.682Z,2.50
2024-01-24T13:14:50.691Z,4.07
2024-01-24T13:17:17.251Z,2.58
2024-01-24T13:19:43.947Z,2.15
2024-01-24T13:22:10.480Z,3.05
2024-01-24T13:24:36.873Z,2.65
2024-01-24T13:27:03.659Z,3.15
2024-01-24T13:29:30.043Z,3.10
2024-01-24T13:31:56.618Z,4.38
2024-01-24T13:34:23.320Z,3.10
2024-01-24T13:36:50.270Z,4.13
2024-01-24T13:39:17.604Z,3.42
2024-01-24T13:41:48.613Z,3.35
2024-01-24T13:44:16.074Z,3.55
2024-01-24T13:46:42.464Z,3.75
2024-01-24T13:49:09.084Z,2.95
2024-01-24T13:51:42.568Z,2.90
2024-01-24T13:54:10.631Z,4.15
2024-01-24T13:56:37.364Z,2.70
2024-01-24T13:59:03.918Z,4.40
2024-01-24T14:01:31.615Z,4.05
2024-01-24T14:03:59.548Z,4.03
2024-01-24T14:06:26.421Z,3.10
2024-01-24T14:08:53.844Z,4.05
2024-01-24T14:11:24.306Z,3.45
2024-01-24T14:13:51.397Z,4.28
2024-01-24T14:16:18.227Z,2.63
2024-01-24T14:18:45.217Z,2.72
2024-01-24T14:21:11.865Z,3.67
2024-01-24T14:23:41.852Z,3.50
2024-01-24T14:26:09.680Z,2.20
2024-01-24T14:28:37.367Z,4.05
2024-01-24T14:31:03.759Z,4.22
2024-01-24T14:33:34.620Z,3.25
2024-01-24T14:36:02.152Z,4.78
2024-01-24T14:38:28.803Z,4.30
2024-01-24T14:40:55.131Z,3.83
2024-01-24T14:43:21.481Z,4.32
2024-01-24T14:45:48.591Z,3.58
2024-01-24T14:48:15.327Z,3.40
2024-01-24T14:50:42.934Z,5.90
2024-01-24T14:53:10.635Z,4.60
2024-01-24T14:55:37.706Z,3.17
2024-01-24T14:58:04.539Z,4.20
2024-01-24T15:00:31.250Z,3.25
2024-01-24T15:02:57.891Z,4.25
2024-01-24T15:05:24.700Z,3.42
2024-01-24T15:07:51.543Z,2.95
2024-01-24T15:10:18.403Z,3.00
2024-01-24T15:12:46.464Z,3.30
2024-01-24T15:15:13.070Z,3.13
2024-01-24T15:17:39.508Z,4.07
2024-01-24T15:20:06.481Z,4.38
2024-01-24T15:22:33.499Z,2.97
2024-01-24T15:25:00.218Z,4.05
2024-01-24T15:27:27.223Z,3.50
2024-01-24T15:29:53.991Z,3.95
2024-01-24T15:32:20.506Z,3.92
2024-01-24T15:34:47.039Z,2.83
2024-01-24T15:37:13.934Z,3.80
2024-01-24T15:39:40.792Z,2.95
2024-01-24T15:42:07.199Z,4.28
2024-01-24T15:44:33.786Z,3.30
2024-01-24T15:47:00.357Z,5.82
2024-01-24T15:49:27.070Z,3.28
2024-01-24T15:51:53.566Z,3.38
2024-01-24T15:54:19.983Z,3.20
2024-01-24T15:56:46.613Z,2.42
2024-01-24T15:59:13.215Z,4.65
2024-01-24T16:01:46.618Z,4.13
2024-01-24T16:04:13.529Z,2.85
2024-01-24T16:06:40.203Z,3.10
2024-01-24T16:09:06.816Z,4.38
2024-01-24T16:11:33.168Z,3.47
2024-01-24T16:13:59.458Z,4.28
2024-01-24T16:16:26.322Z,3.63
2024-01-24T16:18:52.801Z,3.40
2024-01-24T16:21:21.159Z,3.03
2024-01-24T16:23:47.928Z,4.55
2024-01-24T16:26:14.500Z,3.58
2024-01-24T16:28:41.079Z,4.65
2024-01-24T16:31:07.759Z,6.50
2024-01-24T16:33:34.245Z,4.25
2024-01-24T16:36:00.910Z,4.85
2024-01-24T16:38:27.457Z,4.60
2024-01-24T16:40:53.798Z,3.05
2024-01-24T16:43:20.604Z,4.78
2024-01-24T16:45:47.230Z,3.67
2024-01-24T16:48:13.631Z,4.03
2024-01-24T16:50:40.243Z,3.05
2024-01-24T16:53:08.739Z,6.35
2024-01-24T16:55:36.864Z,3.55
2024-01-24T16:58:03.500Z,5.53
2024-01-24T17:00:30.249Z,3.03
2024-01-24T17:02:58.627Z,4.47
2024-01-24T17:05:25.700Z,2.88
2024-01-24T17:07:52.316Z,3.95
2024-01-24T17:10:18.929Z,3.22
2024-01-24T17:12:45.655Z,3.22
2024-01-24T17:15:12.316Z,3.72
2024-01-24T17:17:38.666Z,3.80
2024-01-24T17:20:05.657Z,4.15
2024-01-24T17:22:32.231Z,3.50
2024-01-24T17:24:58.697Z,4.60
2024-01-24T17:27:25.176Z,3.88
2024-01-24T17:29:51.773Z,3.45
2024-01-24T17:32:18.087Z,3.03
2024-01-24T17:34:44.852Z,3.17
2024-01-24T17:37:11.693Z,5.22
2024-01-24T17:39:38.753Z,3.45
2024-01-24T17:42:06.186Z,3.67
2024-01-24T17:44:32.870Z,4.03
2024-01-24T17:46:59.350Z,4.55
2024-01-24T17:49:25.705Z,3.55
2024-01-24T17:51:52.468Z,4.07
2024-01-24T17:54:19.588Z,4.70
2024-01-24T17:56:47.463Z,3.50
2024-01-24T17:59:13.948Z,4.32
2024-01-24T18:01:40.477Z,3.63
2024-01-24T18:04:07.661Z,4.45
2024-01-24T18:06:34.444Z,3.95
2024-01-24T18:09:00.914Z,4.35
2024-01-24T18:11:27.289Z,2.75
2024-01-24T18:13:55.043Z,3.80
2024-01-24T18:16:21.442Z,3.50
2024-01-24T18:18:48.058Z,3.00
2024-01-24T18:21:14.673Z,4.28
2024-01-24T18:23:41.338Z,4.25
2024-01-24T18:26:07.912Z,4.60
2024-01-24T18:28:34.459Z,4.65
2024-01-24T18:31:00.811Z,3.65
2024-01-24T18:33:27.497Z,4.25
2024-01-24T18:35:54.109Z,3.88
2024-01-24T18:38:20.684Z,4.53
2024-01-24T18:40:47.039Z,3.28
2024-01-24T18:43:14.159Z,4.72
2024-01-24T18:45:40.640Z,3.67
2024-01-24T18:48:07.590Z,4.13
2024-01-24T18:50:34.413Z,5.75
2024-01-24T18:53:01.256Z,3.90
2024-01-24T18:55:28.313Z,4.45
2024-01-24T18:57:55.086Z,6.28
2024-01-24T19:00:22.043Z,5.38
2024-01-24T19:02:48.843Z,3.75
2024-01-24T19:05:19.832Z,4.75
2024-01-24T19:07:50.772Z,3.92
2024-01-24T19:10:18.041Z,4.38
2024-01-24T19:12:44.681Z,5.75
2024-01-24T19:15:11.368Z,5.60
2024-01-24T19:17:38.401Z,5.22
2024-01-24T19:20:05.644Z,4.55
2024-01-24T19:22:32.190Z,4.60
2024-01-24T19:24:58.780Z,4.72
2024-01-24T19:27:25.111Z,4.65
2024-01-24T19:29:51.514Z,4.25
2024-01-24T19:32:18.779Z,5.03
2024-01-24T19:34:54.643Z,4.75
2024-01-24T19:37:21.365Z,4.85
2024-01-24T19:39:47.951Z,4.80
2024-01-24T19:42:14.268Z,5.00
2024-01-24T19:44:40.672Z,4.78
2024-01-24T19:47:07.252Z,4.55
2024-01-24T19:49:33.664Z,5.93
2024-01-24T19:52:00.255Z,4.13
2024-01-24T19:54:26.732Z,4.78
2024-01-24T19:56:53.382Z,5.18
2024-01-24T19:59:19.951Z,5.47
2024-01-24T20:01:46.342Z,4.80
2024-01-24T20:04:13.029Z,5.43
2024-01-24T20:06:39.688Z,5.07
2024-01-24T20:09:06.439Z,5.07
2024-01-24T20:11:33.004Z,4.07
2024-01-24T20:13:59.426Z,4.82
2024-01-24T20:16:26.120Z,4.85
2024-01-24T20:18:52.647Z,4.05
2024-01-24T20:21:19.890Z,4.88
2024-01-24T20:23:46.245Z,3.42
2024-01-24T20:26:12.562Z,4.30
2024-01-24T20:28:39.498Z,3.63
2024-01-24T20:31:06.003Z,4.72
2024-01-24T20:33:33.251Z,3.70
2024-01-24T20:35:59.714Z,4.55
2024-01-24T20:38:26.296Z,5.18
2024-01-24T20:40:52.875Z,4.50
2024-01-24T20:43:19.374Z,5.20
2024-01-24T20:45:45.739Z,4.35
2024-01-24T20:48:15.915Z,4.40
2024-01-24T20:50:43.165Z,4.50
2024-01-24T20:53:09.877Z,4.20
2024-01-24T20:55:37.149Z,3.92
2024-01-24T20:58:03.573Z,4.75
2024-01-24T21:00:30.148Z,4.63
2024-01-24T21:02:57.014Z,3.80
2024-01-24T21:05:23.825Z,5.65
2024-01-24T21:07:50.948Z,4.72
2024-01-24T21:10:17.957Z,5.03
2024-01-24T21:12:44.586Z,3.60
2024-01-24T21:15:10.962Z,4.28
2024-01-24T21:17:37.363Z,4.25
2024-01-24T21:20:03.956Z,4.50
2024-01-24T21:22:30.779Z,5.30
2024-01-24T21:24:57.442Z,3.38
2024-01-24T21:27:24.157Z,4.07
2024-01-24T21:29:50.716Z,3.83
2024-01-24T21:32:17.324Z,4.03
2024-01-24T21:34:43.746Z,3.92
2024-01-24T21:37:10.464Z,3.90
2024-01-24T21:39:36.831Z,4.38
2024-01-24T21:42:03.518Z,3.85
2024-01-24T21:44:29.863Z,4.20
2024-01-24T21:46:56.426Z,4.40
2024-01-24T21:49:23.061Z,5.07
2024-01-24T21:51:50.171Z,3.70
2024-01-24T21:54:16.729Z,4.82
2024-01-24T21:56:43.342Z,4.18
2024-01-24T21:59:10.025Z,3.67
2024-01-24T22:01:36.743Z,3.50
2024-01-24T22:04:03.782Z,4.32
2024-01-24T22:06:30.551Z,4.47
2024-01-24T22:08:57.340Z,4.60
2024-01-24T22:11:24.089Z,4.78
2024-01-24T22:13:50.691Z,3.42
2024-01-24T22:16:17.432Z,4.45
2024-01-24T22:18:47.995Z,3.65
2024-01-24T22:21:15.894Z,3.78
2024-01-24T22:23:42.476Z,3.10
2024-01-24T22:26:08.825Z,3.47
2024-01-24T22:28:35.412Z,4.30
2024-01-24T22:31:01.911Z,4.07
2024-01-24T22:33:28.709Z,5.13
2024-01-24T22:35:55.355Z,3.95
2024-01-24T22:38:21.939Z,4.65
2024-01-24T22:40:48.506Z,4.40
2024-01-24T22:43:15.123Z,4.22
2024-01-24T22:45:41.542Z,4.50
2024-01-24T22:48:08.462Z,4.45
2024-01-24T22:50:35.251Z,4.72
2024-01-24T22:53:01.665Z,3.80
2024-01-24T22:55:28.148Z,4.63
2024-01-24T22:57:54.850Z,3.95
2024-01-24T23:00:22.676Z,5.03
2024-01-24T23:02:48.987Z,3.47
2024-01-24T23:05:15.731Z,3.80
2024-01-24T23:07:42.474Z,3.45
2024-01-24T23:10:09.959Z,3.53
2024-01-24T23:12:36.669Z,3.70
2024-01-24T23:15:03.767Z,3.45
2024-01-24T23:17:30.454Z,4.10
2024-01-24T23:19:57.134Z,3.22
2024-01-24T23:22:24.113Z,4.13
2024-01-24T23:24:50.931Z,3.72
2024-01-24T23:27:17.259Z,4.43
2024-01-24T23:29:43.795Z,4.57
2024-01-24T23:32:10.201Z,3.67
2024-01-24T23:34:37.016Z,4.40
2024-01-24T23:37:03.776Z,4.28
2024-01-24T23:39:30.451Z,5.25
2024-01-24T23:41:57.326Z,3.33
2024-01-24T23:44:24.013Z,4.43
2024-01-24T23:46:50.598Z,4.07
2024-01-24T23:49:17.765Z,2.92
2024-01-24T23:51:44.448Z,4.07
2024-01-24T23:54:10.883Z,3.95
2024-01-24T23:56:37.473Z,5.57
2024-01-24T23:59:04.043Z,4.20
